Tiempo atmosférico en la estación meteorológica de Andorra, Teruel (762 m.)



Fecha
DESCASC
Temp. máxima en grados centígrados (hora)
DESCASC
Temp. mínima en grados centígrados (hora)
DESCASC
Temp. media en grados centígrados
DESCASC
Racha de viento máxima en m/sg (hora)
DESCASC
Velocidad máxima media en intervalos de 10 minutos(hora)
DESCASC
Precipitaciones diarias en mm
DESCASC
Precipitaciones de 00:00 a 06:00 en mm
DESCASC
Precipitaciones de 06:00 a 12:00 en mm
DESCASC
Precipitaciones de 12:00 a 18:00 en mm
DESCASC
Precipitaciones de 18:00 a 24:00 en mm
DESCASC
06-07-2020 29 (17:10) 18.1 (07:00) 23.6 12.22 (23:00) 9.17 (22:30) 0 0 0 0 0
05-07-2020 31.6 (17:20) 16.9 (04:30) 24.3 10 (03:00) 8.33 (03:00) 0 0 0 0 0
04-07-2020 28.9 (18:10) 12.1 (06:40) 20.5 10 (03:30) 8.06 (03:30) 0 0 0 0 0
03-07-2020 25.3 (16:50) 13.9 (03:30) 19.6 11.94 (04:20) 9.17 (04:20) 0 0 0 0 0
02-07-2020 28.2 (18:30) 16.2 (00:00) 22.2 14.72 (21:30) 10.28 (20:30) 0 0 0 0 0
01-07-2020 31.7 (17:50) 19.4 (00:00) 25.6 12.22 (21:00) 6.94 (21:00) 0 0 0 0 0
30-06-2020 30 (17:20) 17.6 (00:00) 23.8 11.39 (16:30) 7.78 (17:40) 0 0 0 0 0
29-06-2020 29.4 (16:50) 17 (00:00) 23.2 9.44 (01:30) 7.5 (01:30) 0 0 0 0 0
28-06-2020 29.8 (17:20) 19 (00:00) 24.4 9.17 (16:50) 5.28 (16:40) 0 0 0 0 0
27-06-2020 28.8 (17:30) 15.9 (00:00) 22.3 9.72 (14:00) 5.83 (04:10) 0 0 0 0 0
26-06-2020 30.3 (15:10) 17.1 (00:00) 23.7 13.33 (16:20) 8.89 (19:50) 6 0 0 0 6
25-06-2020 30.4 (16:40) 17.2 (00:00) 23.8 13.61 (16:50) 8.33 (16:50) 0 0 0 0 0
24-06-2020 29.1 (14:20) 17.6 (00:00) 23.4 24.44 (16:20) 20.56 (17:10) 2.2 0 0 1.6 0.6
23-06-2020 29.9 (18:00) 19.1 (00:00) 24.5 9.72 (18:00) 6.11 (14:30) 0 0 0 0 0
22-06-2020 28.7 (17:10) 16.2 (00:00) 22.5 15.28 (02:00) 12.5 (01:40) 0 0 0 0 0
21-06-2020 29.3 (15:50) 16.9 (00:00) 23.1 13.61 (23:40) 10.56 (23:20) 0 0 0 0 0
20-06-2020 26 (16:00) 14.8 (00:00) 20.4 8.89 (15:00) 6.11 (04:40) 0 0 0 0 0
19-06-2020 23 (18:20) 13.8 (00:00) 18.4 8.33 (16:50) 6.39 (20:50) 0 0 0 0 0
18-06-2020 20.4 (17:10) 11.6 (07:10) 16 9.17 (16:20) 6.67 (19:10) 2.4 2.4 0 0 0
17-06-2020 20.6 (16:20) 10.4 (00:00) 15.5 9.17 (04:30) 7.22 (04:30) 0 0 0 0 0
16-06-2020 20.7 (17:10) 13 (00:00) 16.9 11.94 (21:50) 9.44 (21:30) 9.4 0 8.8 0.6 0
15-06-2020 24 (15:20) 13.6 (00:00) 18.8 9.17 (17:00) 7.22 (16:50) 0 0 0 0 0
14-06-2020 25 (17:10) 12.3 (00:00) 18.7 9.17 (15:20) 6.11 (23:40) 0 0 0 0 0
13-06-2020 22.4 (19:10) 10.6 (00:00) 16.5 15.56 (14:50) 11.11 (10:40) 0 0 0 0 0
12-06-2020 21.7 (16:00) 10.4 (00:00) 16.1 12.22 (01:10) 9.44 (01:00) 0 0 0 0 0
11-06-2020 22.1 (18:00) 12.8 (00:00) 17.5 7.22 (13:50) 5.56 (12:20) 0 0 0 0 0

Gráficas

Temp. máximas Temp. mínimas Temp. medias Precipitaciones Rachas de viento máximas Velocidades máximas media en intervalos de 10 minutos

Datos horarios

Fecha y hora oficial Temperatura (ºC) Velocidad del viento (km/h) Dirección del viento Racha (km/h) Dirección de racha Precipitación (mm) Presión (hPa) Tendencia (hPa) Humedad (%)
2020-07-10 23:00:00 -- -- -- -- -- -- -- -- --
2020-07-10 22:00:00 24.2 15 Noroeste 34 Norte 0 -- -- 52
2020-07-10 21:00:00 25.5 16 Oeste 27 Oeste 0 -- -- 45
2020-07-10 20:00:00 27.3 16 Oeste 21 Oeste 0 -- -- 42
2020-07-10 19:00:00 28.9 4 Noroeste 30 Oeste 0 -- -- 39
2020-07-10 18:00:00 28.2 14 Sudoeste 28 Sur 0 -- -- 37
2020-07-10 17:00:00 29 17 Nordeste 32 Este 0 -- -- 40
2020-07-10 16:00:00 29.1 15 Nordeste 27 Nordeste 0 -- -- 40
2020-07-10 15:00:00 27.7 15 Nordeste 40 Nordeste 0 -- -- 46
2020-07-10 14:00:00 27.6 15 Este 27 Este 0 -- -- 48
2020-07-10 13:00:00 26.9 9 Nordeste 21 Nordeste 0 -- -- 50
2020-07-10 12:00:00 25.1 15 Nordeste 24 Nordeste 0 -- -- 57
2020-07-10 11:00:00 23.9 5 Nordeste 16 Oeste 0 -- -- 57
2020-07-10 10:00:00 21.2 10 Oeste 19 Oeste 0 -- -- 65
2020-07-10 09:00:00 19.6 13 Oeste 22 Oeste 0 -- -- 66
2020-07-10 08:00:00 18.8 6 Noroeste 19 Oeste 0 -- -- 68
2020-07-10 07:00:00 17.7 15 Oeste 19 Oeste 0 -- -- 69
2020-07-10 06:00:00 17.8 15 Oeste 19 Oeste 0 -- -- 69
2020-07-10 05:00:00 18.3 17 Oeste 22 Oeste 0 -- -- 66
2020-07-10 04:00:00 18.9 13 Oeste 15 Oeste 0 -- -- 64
2020-07-10 03:00:00 20.2 9 Sudoeste 11 Sudoeste 0 -- -- 60
2020-07-10 02:00:00 21.3 3 Nordeste 14 Sudoeste 0 -- -- 53
2020-07-10 01:00:00 20.7 12 Sudoeste 26 Sudoeste 0 -- -- 58
2020-07-10 00:00:00 20.8 22 Sudoeste 48 Oeste 0 -- -- 57
2020-07-09 23:00:00 21.8 45 Oeste 70 Oeste 0 -- -- 55
2020-07-09 22:00:00 26.3 12 Este 15 Este 0 -- -- 52
2020-07-09 21:00:00 27.2 15 Nordeste 21 Nordeste 0 -- -- 46
2020-07-09 20:00:00 28.2 19 Nordeste 27 Nordeste 0 -- -- 40
2020-07-09 19:00:00 28.8 17 Nordeste 29 Nordeste 0 -- -- 39
2020-07-09 18:00:00 29.1 18 Nordeste 28 Nordeste 0 -- -- 41
2020-07-09 17:00:00 29.2 15 Nordeste 26 Este 0 -- -- 47
2020-07-09 16:00:00 29.5 3 Sudoeste 12 Nordeste 0 -- -- 37
2020-07-09 15:00:00 28.2 5 Sudoeste 25 Oeste 0 -- -- 43
2020-07-09 14:00:00 26.1 8 Sudoeste 25 Este 0 -- -- 49
2020-07-09 13:00:00 25 8 Este 18 Nordeste 0 -- -- 59
2020-07-09 12:00:00 24.4 9 Oeste 18 Nordeste 0 -- -- 57
2020-07-09 11:00:00 24.2 11 Este 18 Este 0 -- -- 59
2020-07-09 10:00:00 25.7 5 Norte 11 Norte 0 -- -- 48
2020-07-09 09:00:00 22.6 0 Calma 12 Sur 0 -- -- 53
2020-07-09 08:00:00 22.5 5 Sur 17 Sur 0 -- -- 49
2020-07-09 07:00:00 21.8 6 Sudoeste 27 Oeste 0 -- -- 52
2020-07-09 06:00:00 21.5 27 Oeste 50 Oeste 0 -- -- 55
2020-07-09 05:00:00 21.9 41 Oeste 55 Oeste 0 -- -- 56
2020-07-09 04:00:00 23.4 13 Este 23 Este 0 -- -- 49
2020-07-09 03:00:00 22.7 20 Este 23 Este 0 -- -- 56
2020-07-09 02:00:00 27.7 23 Noroeste 55 Oeste 0 -- -- 32
2020-07-09 01:00:00 28.7 34 Sudoeste 54 Sudoeste 0 -- -- 27
2020-07-09 00:00:00 28 42 Sudoeste 62 Sudoeste 0 -- -- 30
2020-07-08 23:00:00 26.6 37 Sudoeste 57 Sudoeste 0 -- -- 34
2020-07-08 22:00:00 26.1 13 Oeste 26 Sudoeste 0 -- -- 40
2020-07-08 21:00:00 26.9 10 Noroeste 54 Sudoeste 0 -- -- 50
2020-07-08 20:00:00 27.2 37 Sudoeste 50 Sudoeste 0.2 -- -- 36
2020-07-08 19:00:00 29.1 17 Este 27 Este 0 -- -- 47
2020-07-08 18:00:00 29.9 20 Nordeste 32 Nordeste 0 -- -- 39
2020-07-08 17:00:00 30.7 21 Nordeste 31 Nordeste 0 -- -- 35
2020-07-08 16:00:00 30.3 24 Nordeste 33 Nordeste 0 -- -- 36
2020-07-08 15:00:00 28.6 15 Este 29 Este 0 -- -- 41
2020-07-08 14:00:00 26.2 17 Este 33 Este 0 -- -- 45
2020-07-08 13:00:00 26.1 17 Nordeste 24 Este 0 -- -- 43
2020-07-08 12:00:00 25.2 15 Noroeste 25 Oeste 0 -- -- 46
2020-07-08 11:00:00 24.8 15 Nordeste 21 Nordeste 0 -- -- 42
2020-07-08 10:00:00 23.8 5 Nordeste 14 Nordeste 0 -- -- 47
2020-07-08 09:00:00 22.2 3 Nordeste 8 Nordeste 0 -- -- 49
2020-07-08 08:00:00 19.2 6 Oeste 9 Oeste 0 -- -- 44
2020-07-08 07:00:00 20.3 0 Calma 7 Sudeste 0 -- -- 42
2020-07-08 06:00:00 20.4 4 Sur 8 Sur 0 -- -- 37
2020-07-08 05:00:00 21.2 5 Sudeste 7 Sudeste 0 -- -- 38
2020-07-08 04:00:00 21.4 2 Sudoeste 5 Noroeste 0 -- -- 35
2020-07-08 03:00:00 22.6 4 Norte 17 Norte 0 -- -- 31
2020-07-08 02:00:00 23.3 13 Norte 18 Norte 0 -- -- 32
2020-07-08 01:00:00 24.1 14 Noroeste 16 Noroeste 0 -- -- 27
2020-07-08 00:00:00 25.1 4 Sudoeste 5 Este 0 -- -- 24
2020-07-07 23:00:00 26 3 Nordeste 4 Nordeste 0 -- -- 23
2020-07-07 22:00:00 26.6 2 Noroeste 6 Noroeste 0 -- -- 22
2020-07-07 21:00:00 28.1 5 Noroeste 14 Norte 0 -- -- 21
2020-07-07 20:00:00 28.1 8 Nordeste 20 Nordeste 0 -- -- 21
2020-07-07 19:00:00 28.3 13 Nordeste 21 Nordeste 0 -- -- 24
2020-07-07 18:00:00 29.3 11 Norte 24 Nordeste 0 -- -- 24
2020-07-07 17:00:00 29.3 10 Norte 25 Nordeste 0 -- -- 24
2020-07-07 16:00:00 28.6 13 Nordeste 28 Nordeste 0 -- -- 25
2020-07-07 15:00:00 27.9 13 Norte 21 Noroeste 0 -- -- 29
2020-07-07 14:00:00 25.4 14 Nordeste 25 Nordeste 0 -- -- 36
2020-07-07 13:00:00 24.4 10 Norte 20 Nordeste 0 -- -- 39
2020-07-07 12:00:00 22 5 Oeste 16 Norte 0 -- -- 42
2020-07-07 11:00:00 19.5 4 Oeste 14 Noroeste 0 -- -- 47
2020-07-07 10:00:00 17.8 10 Noroeste 15 Noroeste 0 -- -- 51
2020-07-07 09:00:00 16.4 8 Noroeste 14 Norte 0 -- -- 50
2020-07-07 08:00:00 16 6 Norte 12 Norte 0 -- -- 51
2020-07-07 07:00:00 14.1 9 Noroeste 18 Noroeste 0 -- -- 52
2020-07-07 06:00:00 14.2 12 Noroeste 20 Noroeste 0 -- -- 53
2020-07-07 05:00:00 15.5 5 Este 9 Este 0 -- -- 53
2020-07-07 04:00:00 16.2 2 Norte 9 Noroeste 0 -- -- 53
2020-07-07 03:00:00 16.8 6 Noroeste 32 Oeste 0 -- -- 50
2020-07-07 02:00:00 17.7 23 Oeste 38 Oeste 0 -- -- 46
2020-07-07 01:00:00 17.8 26 Oeste 37 Oeste 0 -- -- 51
2020-07-07 00:00:00 18.5 30 Oeste 43 Oeste 0 -- -- 56
2020-07-06 23:00:00 19.4 33 Oeste 44 Oeste 0 -- -- 58
2020-07-06 22:00:00 21 26 Oeste 40 Oeste 0 -- -- 56
2020-07-06 21:00:00 24.3 27 Oeste 39 Noroeste 0 -- -- 41
2020-07-06 20:00:00 25.9 31 Noroeste 42 Noroeste 0 -- -- 41
2020-07-06 19:00:00 27.7 28 Noroeste 40 Noroeste 0 -- -- 41
2020-07-06 18:00:00 28.3 28 Noroeste 42 Norte 0 -- -- 40
2020-07-06 17:00:00 28.9 23 Noroeste 41 Noroeste 0 -- -- 41
2020-07-06 16:00:00 28.4 25 Noroeste 40 Noroeste 0 -- -- 43
2020-07-06 15:00:00 28.4 24 Noroeste 39 Noroeste 0 -- -- 43
2020-07-06 14:00:00 27 22 Noroeste 36 Noroeste 0 -- -- 46
2020-07-06 13:00:00 25.7 20 Noroeste 37 Oeste 0 -- -- 51
2020-07-06 12:00:00 24.3 22 Oeste 37 Oeste 0 -- -- 53
2020-07-06 11:00:00 22.3 27 Oeste 39 Oeste 0 -- -- 56
2020-07-06 10:00:00 20.8 26 Oeste 35 Oeste 0 -- -- 59
2020-07-06 09:00:00 19.8 22 Oeste 31 Oeste 0 -- -- 62
2020-07-06 08:00:00 18.6 12 Oeste 18 Oeste 0 -- -- 66
2020-07-06 07:00:00 18.1 10 Oeste 15 Oeste 0 -- -- 66
2020-07-06 06:00:00 18.9 9 Sudoeste 19 Oeste 0 -- -- 62
2020-07-06 05:00:00 19.8 12 Oeste 20 Oeste 0 -- -- 58
2020-07-06 04:00:00 20 14 Oeste 32 Oeste 0 -- -- 57
2020-07-06 03:00:00 20.6 17 Sudoeste 26 Oeste 0 -- -- 55
2020-07-06 02:00:00 21.5 24 Oeste 33 Oeste 0 -- -- 55
2020-07-06 01:00:00 22.8 23 Oeste 27 Noroeste 0 -- -- 48
2020-07-06 00:00:00 25.1 19 Noroeste 24 Noroeste 0 -- -- 42
2020-07-05 23:00:00 26 14 Noroeste 16 Noroeste 0 -- -- 36
2020-07-05 22:00:00 27.5 6 Norte 10 Norte 0 -- -- 33
2020-07-05 21:00:00 28.5 10 Nordeste 18 Norte 0 -- -- 32
2020-07-05 20:00:00 29.5 13 Norte 24 Noroeste 0 -- -- 30
2020-07-05 19:00:00 30.4 14 Norte 29 Norte 0 -- -- 29
2020-07-05 18:00:00 31.2 14 Norte 30 Noroeste 0 -- -- 29
2020-07-05 17:00:00 31.4 13 Norte 27 Nordeste 0 -- -- 30
2020-07-05 16:00:00 30.8 12 Norte 25 Norte 0 -- -- 33
2020-07-05 15:00:00 30.2 12 Norte 27 Norte 0 -- -- 33
2020-07-05 14:00:00 28.3 10 Noroeste 26 Norte 0 -- -- 36
2020-07-05 13:00:00 27.5 11 Noroeste 27 Noroeste 0 -- -- 38
2020-07-05 12:00:00 26.6 11 Norte 21 Norte 0 -- -- 40
2020-07-05 11:00:00 23.8 15 Oeste 28 Oeste 0 -- -- 44
2020-07-05 10:00:00 22.2 10 Oeste 19 Oeste 0 -- -- 48
2020-07-05 09:00:00 20.2 11 Sudoeste 17 Sudoeste 0 -- -- 52
2020-07-05 08:00:00 18.2 8 Sudoeste 12 Sur 0 -- -- 53
2020-07-05 07:00:00 17.2 13 Sudoeste 26 Sudoeste 0 -- -- 55
2020-07-05 06:00:00 17.7 9 Sudoeste 19 Sudoeste 0 -- -- 53
2020-07-05 05:00:00 17.7 11 Oeste 26 Oeste 0 -- -- 52
2020-07-05 04:00:00 17.4 24 Oeste 32 Oeste 0 -- -- 53
2020-07-05 03:00:00 18.2 30 Oeste 36 Oeste 0 -- -- 50
2020-07-05 02:00:00 19 26 Oeste 33 Oeste 0 -- -- 47
2020-07-05 01:00:00 19.3 24 Oeste 33 Oeste 0 -- -- 43
2020-07-05 00:00:00 20.9 20 Oeste 23 Oeste 0 -- -- 37
2020-07-04 23:00:00 23 20 Noroeste 26 Noroeste 0 -- -- 32
2020-07-04 22:00:00 23.9 13 Noroeste 17 Noroeste 0 -- -- 28
2020-07-04 21:00:00 26.5 14 Noroeste 24 Noroeste 0 -- -- 25
2020-07-04 20:00:00 27.9 17 Noroeste 30 Noroeste 0 -- -- 22
2020-07-04 19:00:00 28.1 15 Norte 30 Noroeste 0 -- -- 20
2020-07-04 18:00:00 28.7 16 Noroeste 31 Norte 0 -- -- 21
2020-07-04 17:00:00 28.3 21 Noroeste 30 Noroeste 0 -- -- 22
2020-07-04 16:00:00 27.9 15 Norte 35 Noroeste 0 -- -- 23
2020-07-04 15:00:00 26.6 18 Noroeste 30 Noroeste 0 -- -- 25
2020-07-04 14:00:00 25.8 10 Noroeste 24 Norte 0 -- -- 35
2020-07-04 13:00:00 24.5 10 Nordeste 24 Norte 0 -- -- 38
2020-07-04 12:00:00 22.8 7 Norte 15 Noroeste 0 -- -- 40
2020-07-04 11:00:00 20 9 Nordeste 17 Nordeste 0 -- -- 51
2020-07-04 10:00:00 18.8 11 Nordeste 15 Nordeste 0 -- -- 54
2020-07-04 09:00:00 15.9 3 Norte 8 Oeste 0 -- -- 65
2020-07-04 08:00:00 13 9 Oeste 20 Oeste 0 -- -- 73
2020-07-04 07:00:00 12.3 15 Sudoeste 18 Oeste 0 -- -- 75
2020-07-04 06:00:00 12.7 11 Oeste 20 Oeste 0 -- -- 73
2020-07-04 05:00:00 13 13 Oeste 29 Oeste 0 -- -- 71
2020-07-04 04:00:00 13.5 25 Oeste 36 Oeste 0 -- -- 69
2020-07-04 03:00:00 13.8 25 Oeste 32 Oeste 0 -- -- 68
2020-07-04 02:00:00 14.7 18 Oeste 31 Oeste 0 -- -- 65
2020-07-04 01:00:00 15.4 22 Oeste 29 Oeste 0 -- -- 64
2020-07-04 00:00:00 16.7 19 Oeste 22 Oeste 0 -- -- 61
2020-07-03 23:00:00 17.9 12 Noroeste 23 Noroeste 0 -- -- 55
2020-07-03 22:00:00 19.4 14 Noroeste 23 Noroeste 0 -- -- 50
2020-07-03 21:00:00 22 18 Noroeste 28 Norte 0 -- -- 43
2020-07-03 20:00:00 23.6 15 Norte 35 Norte 0 -- -- 39
2020-07-03 19:00:00 24.5 22 Noroeste 39 Noroeste 0 -- -- 38
2020-07-03 18:00:00 24.7 23 Norte 38 Noroeste 0 -- -- 39
2020-07-03 17:00:00 25.2 21 Noroeste 36 Noroeste 0 -- -- 40
2020-07-03 16:00:00 24.6 19 Noroeste 33 Noroeste 0 -- -- 42
2020-07-03 15:00:00 24.1 20 Noroeste 33 Noroeste 0 -- -- 45
2020-07-03 14:00:00 23 16 Noroeste 31 Oeste 0 -- -- 47
2020-07-03 13:00:00 21.8 19 Noroeste 39 Noroeste 0 -- -- 47
2020-07-03 12:00:00 20.1 23 Noroeste 36 Oeste 0 -- -- 50
2020-07-03 11:00:00 19.4 21 Noroeste 36 Oeste 0 -- -- 52
2020-07-03 10:00:00 17 27 Oeste 39 Oeste 0 -- -- 60
2020-07-03 09:00:00 15.2 26 Oeste 35 Oeste 0 -- -- 67
2020-07-03 08:00:00 14.5 27 Oeste 33 Oeste 0 -- -- 69
2020-07-03 07:00:00 14.4 21 Oeste 27 Oeste 0 -- -- 71
2020-07-03 06:00:00 14.4 22 Oeste 30 Oeste 0 -- -- 72
2020-07-03 05:00:00 14.4 24 Oeste 43 Oeste 0 -- -- 72
2020-07-03 04:00:00 14.2 30 Oeste 38 Oeste 0 -- -- 76
2020-07-03 03:00:00 14.2 28 Oeste 37 Oeste 0 -- -- 77
2020-07-03 02:00:00 14.7 28 Oeste 37 Oeste 0 -- -- 75
2020-07-03 01:00:00 15.3 24 Oeste 34 Oeste 0 -- -- 73
2020-07-03 00:00:00 16.6 24 Oeste 37 Oeste 0 -- -- 70
2020-07-02 23:00:00 18.1 30 Oeste 44 Noroeste 0 -- -- 66
2020-07-02 22:00:00 20 31 Noroeste 53 Noroeste 0 -- -- 62
2020-07-02 21:00:00 23 36 Noroeste 50 Noroeste 0 -- -- 55
2020-07-02 20:00:00 26.6 26 Norte 36 Norte 0 -- -- 45
2020-07-02 19:00:00 27.1 16 Norte 26 Norte 0 -- -- 45
2020-07-02 18:00:00 27.6 14 Norte 28 Nordeste 0 -- -- 44
2020-07-02 17:00:00 27.4 9 Norte 29 Nordeste 0 -- -- 47
2020-07-02 16:00:00 27 14 Nordeste 37 Nordeste 0 -- -- 48
2020-07-02 15:00:00 26.4 14 Nordeste 30 Nordeste 0 -- -- 50
2020-07-02 14:00:00 25.7 22 Nordeste 34 Nordeste 0 -- -- 53
2020-07-02 13:00:00 26.1 11 Norte 22 Nordeste 0 -- -- 52
2020-07-02 12:00:00 24.3 8 Nordeste 18 Nordeste 0 -- -- 57
2020-07-02 11:00:00 23.8 7 Nordeste 19 Norte 0 -- -- 58
2020-07-02 10:00:00 21.8 7 Nordeste 15 Oeste 0 -- -- 64
2020-07-02 09:00:00 19.4 6 Oeste 12 Oeste 0 -- -- 74
2020-07-02 08:00:00 17 9 Oeste 12 Oeste 0 -- -- 83
2020-07-02 07:00:00 16.2 10 Sudoeste 13 Sudoeste 0 -- -- 85
2020-07-02 06:00:00 16.7 9 Oeste 14 Oeste 0 -- -- 83
2020-07-02 05:00:00 17.3 11 Oeste 21 Oeste 0 -- -- 82
2020-07-02 04:00:00 18.1 10 Oeste 18 Oeste 0 -- -- 80
2020-07-02 03:00:00 19 14 Oeste 19 Oeste 0 -- -- 78
2020-07-02 02:00:00 20.1 14 Oeste 22 Oeste 0 -- -- 74
2020-07-02 01:00:00 21.4 17 Oeste 24 Oeste 0 -- -- 72
2020-07-02 00:00:00 22.8 15 Oeste 32 Noroeste 0 -- -- 67
2020-07-01 23:00:00 24.2 21 Noroeste 32 Noroeste 0 -- -- 59
2020-07-01 22:00:00 25.6 21 Noroeste 39 Noroeste 0 -- -- 59
2020-07-01 21:00:00 28.6 25 Norte 44 Norte 0 -- -- 50
2020-07-01 20:00:00 30.7 10 Nordeste 22 Nordeste 0 -- -- 37
2020-07-01 19:00:00 31.2 16 Nordeste 23 Nordeste 0 -- -- 37
2020-07-01 18:00:00 31.5 10 Nordeste 21 Norte 0 -- -- 37
2020-07-01 17:00:00 31 16 Nordeste 28 Norte 0 -- -- 40
2020-07-01 16:00:00 30.9 12 Nordeste 31 Nordeste 0 -- -- 43
2020-07-01 15:00:00 30.2 19 Nordeste 28 Nordeste 0 -- -- 48
2020-07-01 14:00:00 28.5 15 Nordeste 27 Nordeste 0 -- -- 51
2020-07-01 13:00:00 27.8 17 Nordeste 26 Nordeste 0 -- -- 55
2020-07-01 12:00:00 26.3 18 Nordeste 24 Nordeste 0 -- -- 67
2020-07-01 11:00:00 25.6 11 Nordeste 17 Nordeste 0 -- -- 68
2020-07-01 10:00:00 23.9 7 Este 13 Nordeste 0 -- -- 74
2020-07-01 09:00:00 22.3 2 Este 8 Nordeste 0 -- -- 83
2020-07-01 08:00:00 19.5 4 Oeste 8 Oeste 0 -- -- 90
2020-07-01 07:00:00 19.8 0 Calma 8 Este 0 -- -- 90
2020-07-01 06:00:00 19.9 5 Este 10 Este 0 -- -- 90
2020-07-01 05:00:00 20.3 3 Sudoeste 12 Sudoeste 0 -- -- 88
2020-07-01 04:00:00 20 9 Sudoeste 18 Sur 0 -- -- 91
2020-07-01 03:00:00 21.2 5 Noroeste 18 Oeste 0 -- -- 86
2020-07-01 02:00:00 20.6 11 Oeste 14 Oeste 0 -- -- 90
2020-07-01 01:00:00 21.3 8 Sudoeste 13 Sur 0 -- -- 85
2020-07-01 00:00:00 21.3 2 Sur 24 Norte 0 -- -- 84
2020-06-30 23:00:00 21.9 19 Norte 30 Norte 0 -- -- 85
2020-06-30 22:00:00 24.3 9 Oeste 18 Oeste 0 -- -- 70
2020-06-30 21:00:00 25.6 2 Este 21 Norte 0 -- -- 64
2020-06-30 20:00:00 26.1 13 Nordeste 27 Nordeste 0 -- -- 63
2020-06-30 19:00:00 26.9 22 Nordeste 36 Nordeste 0 -- -- 62
2020-06-30 18:00:00 29.6 24 Nordeste 40 Nordeste 0 -- -- 54
2020-06-30 17:00:00 29.8 27 Este 41 Nordeste 0 -- -- 51
2020-06-30 16:00:00 29.2 25 Este 35 Nordeste 0 -- -- 50
2020-06-30 15:00:00 27.7 24 Este 34 Este 0 -- -- 51
2020-06-30 14:00:00 26.7 19 Este 30 Este 0 -- -- 53
2020-06-30 13:00:00 25.3 15 Nordeste 26 Nordeste 0 -- -- 55
2020-06-30 12:00:00 23.8 15 Este 23 Nordeste 0 -- -- 59
2020-06-30 11:00:00 22.6 13 Nordeste 22 Este 0 -- -- 64
2020-06-30 10:00:00 21.5 10 Este 18 Nordeste 0 -- -- 68
2020-06-30 09:00:00 20.5 9 Nordeste 13 Nordeste 0 -- -- 72
2020-06-30 08:00:00 18 5 Oeste 8 Oeste 0 -- -- 81
2020-06-30 07:00:00 17.6 5 Sudoeste 8 Oeste 0 -- -- 81
2020-06-30 06:00:00 17.8 6 Oeste 10 Oeste 0 -- -- 82
2020-06-30 05:00:00 18.2 7 Oeste 10 Oeste 0 -- -- 80
2020-06-30 04:00:00 18.6 7 Oeste 10 Oeste 0 -- -- 78
2020-06-30 03:00:00 19 8 Oeste 15 Oeste 0 -- -- 78
2020-06-30 02:00:00 19.9 12 Oeste 15 Noroeste 0 -- -- 74
2020-06-30 01:00:00 20.6 9 Oeste 17 Noroeste 0 -- -- 70
2020-06-30 00:00:00 21.7 13 Noroeste 27 Norte 0 -- -- 65
2020-06-29 23:00:00 23.5 18 Norte 30 Norte 0 -- -- 60
2020-06-29 22:00:00 26.4 14 Nordeste 19 Norte 0 -- -- 55
2020-06-29 21:00:00 27.8 15 Nordeste 18 Nordeste 0 -- -- 46
2020-06-29 20:00:00 28.2 15 Nordeste 21 Nordeste 0 -- -- 44
2020-06-29 19:00:00 28.5 12 Nordeste 23 Nordeste 0 -- -- 45
2020-06-29 18:00:00 28.8 12 Nordeste 25 Nordeste 0 -- -- 46
2020-06-29 17:00:00 29.1 17 Nordeste 28 Nordeste 0 -- -- 47
2020-06-29 16:00:00 28.9 10 Nordeste 27 Nordeste 0 -- -- 47
2020-06-29 15:00:00 27.9 9 Nordeste 33 Nordeste 0 -- -- 49
2020-06-29 14:00:00 27.3 10 Norte 25 Este 0 -- -- 51
2020-06-29 13:00:00 26.5 15 Este 26 Este 0 -- -- 53
2020-06-29 12:00:00 24.6 4 Sur 13 Oeste 0 -- -- 56
2020-06-29 11:00:00 22.7 8 Oeste 18 Oeste 0 -- -- 62
2020-06-29 10:00:00 21.3 11 Oeste 18 Oeste 0 -- -- 67
2020-06-29 09:00:00 19.5 15 Oeste 26 Oeste 0 -- -- 73
2020-06-29 08:00:00 17.8 22 Oeste 28 Oeste 0 -- -- 78
2020-06-29 07:00:00 17.1 15 Oeste 24 Oeste 0 -- -- 80
2020-06-29 06:00:00 17.1 19 Oeste 26 Oeste 0 -- -- 80
2020-06-29 05:00:00 17.9 20 Oeste 27 Oeste 0 -- -- 77
2020-06-29 04:00:00 18.9 21 Oeste 29 Oeste 0 -- -- 74
2020-06-29 03:00:00 20 19 Oeste 27 Oeste 0 -- -- 73
2020-06-29 02:00:00 22.3 12 Noroeste 34 Noroeste 0 -- -- 65
2020-06-29 01:00:00 23.8 22 Noroeste 30 Noroeste 0 -- -- 62
2020-06-29 00:00:00 24.1 13 Sudoeste 17 Sudoeste 0 -- -- 66
2020-06-28 23:00:00 24.1 14 Sur 22 Sur 0 -- -- 68
2020-06-28 22:00:00 25.6 14 Sur 22 Sur 0 -- -- 64
2020-06-28 21:00:00 27.2 9 Sudeste 23 Este 0 -- -- 56
2020-06-28 20:00:00 27.9 15 Este 26 Este 0 -- -- 53
2020-06-28 19:00:00 28.6 17 Nordeste 28 Nordeste 0 -- -- 44
2020-06-28 18:00:00 28.8 18 Este 28 Nordeste 0 -- -- 43
2020-06-28 17:00:00 29.2 14 Norte 33 Nordeste 0 -- -- 45
2020-06-28 16:00:00 29.1 9 Norte 28 Nordeste 0 -- -- 47
2020-06-28 15:00:00 28.6 7 Norte 24 Nordeste 0 -- -- 47
2020-06-28 14:00:00 27.3 12 Nordeste 25 Nordeste 0 -- -- 52
2020-06-28 13:00:00 26.6 9 Este 24 Nordeste 0 -- -- 54
2020-06-28 12:00:00 26.3 13 Nordeste 22 Nordeste 0 -- -- 56
2020-06-28 11:00:00 25 8 Norte 19 Norte 0 -- -- 59
2020-06-28 10:00:00 23.1 6 Noroeste 14 Noroeste 0 -- -- 59
2020-06-28 09:00:00 21 7 Sur 10 Oeste 0 -- -- 69
2020-06-28 08:00:00 19.1 10 Oeste 11 Oeste 0 -- -- 75
2020-06-28 07:00:00 19.4 6 Oeste 11 Norte 0 -- -- 72
2020-06-28 06:00:00 19 11 Oeste 18 Oeste 0 -- -- 76
2020-06-28 05:00:00 19.2 12 Oeste 17 Oeste 0 -- -- 76
2020-06-28 04:00:00 20.7 9 Sudoeste 18 Sudoeste 0 -- -- 66
2020-06-28 03:00:00 20.8 14 Sur 17 Sur 0 -- -- 67
2020-06-28 02:00:00 21.2 10 Sudoeste 12 Sudoeste 0 -- -- 66
2020-06-28 01:00:00 22.4 12 Sudoeste 17 Sur 0 -- -- 62
2020-06-28 00:00:00 23.6 13 Sur 15 Sur 0 -- -- 60
2020-06-27 23:00:00 24.6 10 Sur 18 Este 0 -- -- 57
2020-06-27 22:00:00 25.7 16 Este 20 Este 0 -- -- 42
2020-06-27 21:00:00 26.5 9 Este 18 Este 0 -- -- 41
2020-06-27 20:00:00 27 10 Nordeste 19 Este 0 -- -- 39
2020-06-27 19:00:00 27.3 12 Nordeste 22 Nordeste 0 -- -- 41
2020-06-27 18:00:00 28.3 5 Norte 27 Noroeste 0 -- -- 41
2020-06-27 17:00:00 27.7 12 Norte 24 Nordeste 0 -- -- 42
2020-06-27 16:00:00 27.8 8 Noroeste 22 Noroeste 0 -- -- 42
2020-06-27 15:00:00 26.8 12 Norte 23 Noroeste 0 -- -- 47
2020-06-27 14:00:00 26.2 15 Norte 35 Nordeste 0 -- -- 47
2020-06-27 13:00:00 26.2 13 Norte 30 Norte 0 -- -- 50
2020-06-27 12:00:00 25.1 9 Nordeste 22 Oeste 0 -- -- 57
2020-06-27 11:00:00 22.6 15 Oeste 23 Oeste 0 -- -- 57
2020-06-27 10:00:00 21 15 Oeste 23 Oeste 0 -- -- 61
2020-06-27 09:00:00 19 8 Oeste 17 Oeste 0 -- -- 71
2020-06-27 08:00:00 17.2 15 Oeste 21 Sudoeste 0 -- -- 75
2020-06-27 07:00:00 16.3 16 Oeste 22 Oeste 0 -- -- 80
2020-06-27 06:00:00 16.2 21 Sudoeste 22 Sudoeste 0 -- -- 83
2020-06-27 05:00:00 16.7 17 Sudoeste 23 Oeste 0 -- -- 79
2020-06-27 04:00:00 16.9 18 Oeste 23 Oeste 0 -- -- 81
2020-06-27 03:00:00 18.1 9 Sudoeste 21 Sur 0 -- -- 74
2020-06-27 02:00:00 17.8 19 Sur 23 Sur 0 -- -- 79
2020-06-27 01:00:00 17.6 15 Sudoeste 19 Sudoeste 0 -- -- 81
2020-06-27 00:00:00 19.3 9 Sudeste 13 Sudeste 0 -- -- 67
2020-06-26 23:00:00 18 12 Noroeste 29 Noroeste 0 -- -- 82
2020-06-26 22:00:00 18.1 13 Sur 29 Sudeste 2.2 -- -- 85
2020-06-26 21:00:00 18.3 17 Sur 27 Nordeste 3 -- -- 85
2020-06-26 20:00:00 19.8 20 Oeste 42 Oeste 0.8 -- -- 72
2020-06-26 19:00:00 23.4 30 Oeste 44 Sudeste 0 -- -- 51
2020-06-26 18:00:00 27.1 20 Sudeste 40 Sudeste 0 -- -- 38
2020-06-26 17:00:00 29.2 17 Sudeste 48 Este 0 -- -- 33
2020-06-26 16:00:00 30 25 Este 40 Este 0 -- -- 30
2020-06-26 15:00:00 29.9 15 Sudeste 27 Este 0 -- -- 31
2020-06-26 14:00:00 28.2 11 Sudeste 35 Este 0 -- -- 32
2020-06-26 13:00:00 27.8 13 Este 28 Este 0 -- -- 31
2020-06-26 12:00:00 27.6 13 Este 28 Este 0 -- -- 34
2020-06-26 11:00:00 25.9 12 Este 21 Este 0 -- -- 36
2020-06-26 10:00:00 23.4 9 Nordeste 14 Este 0 -- -- 44
2020-06-26 09:00:00 20.5 3 Sudeste 12 Sur 0 -- -- 54
2020-06-26 08:00:00 17.7 12 Sur 28 Sur 0 -- -- 61
2020-06-26 07:00:00 18.4 17 Sur 26 Sur 0 -- -- 54
2020-06-26 06:00:00 18.1 21 Sur 25 Sur 0 -- -- 56
2020-06-26 05:00:00 17.3 17 Sur 24 Sudeste 0 -- -- 76
2020-06-26 04:00:00 17.7 18 Sur 21 Sur 0 -- -- 81
2020-06-26 03:00:00 17.3 14 Sudoeste 17 Sur 0 -- -- 83
2020-06-26 02:00:00 17.6 14 Oeste 19 Oeste 0 -- -- 83
2020-06-26 01:00:00 18.4 14 Oeste 22 Noroeste 0 -- -- 74
2020-06-26 00:00:00 19.3 11 Oeste 22 Noroeste 0 -- -- 79
2020-06-25 23:00:00 20.6 5 Sudeste 10 Sudeste 0 -- -- 71
2020-06-25 22:00:00 20.8 8 Sudoeste 15 Oeste 0 -- -- 73
2020-06-25 21:00:00 21.9 12 Oeste 37 Noroeste 0 -- -- 68
2020-06-25 20:00:00 25.7 14 Nordeste 37 Sudeste 0 -- -- 50
2020-06-25 19:00:00 27.3 19 Sudeste 41 Este 0 -- -- 44
2020-06-25 18:00:00 29 20 Sudeste 38 Sudeste 0 -- -- 44
2020-06-25 17:00:00 30.1 24 Este 49 Este 0 -- -- 39
2020-06-25 16:00:00 30.1 27 Este 37 Nordeste 0 -- -- 45
2020-06-25 15:00:00 29.3 23 Este 33 Nordeste 0 -- -- 47
2020-06-25 14:00:00 -- -- -- -- -- -- -- -- --
2020-06-25 13:00:00 27.5 14 Este 24 Este 0 -- -- 44
2020-06-25 12:00:00 25.8 15 Nordeste 22 Este 0 -- -- 47
2020-06-25 11:00:00 24.5 13 Nordeste 18 Este 0 -- -- 56
2020-06-25 10:00:00 22.9 4 Este 11 Este 0 -- -- 58
2020-06-25 09:00:00 21.4 5 Nordeste 13 Este 0 -- -- 66
2020-06-25 08:00:00 19.2 14 Este 16 Este 0 -- -- 70
2020-06-25 07:00:00 18 4 Oeste 12 Oeste 0 -- -- 69
2020-06-25 06:00:00 18.1 5 Oeste 17 Oeste 0 -- -- 67
2020-06-25 05:00:00 18 11 Sudoeste 19 Sudoeste 0 -- -- 68
2020-06-25 04:00:00 17.7 12 Sudoeste 22 Sur 0 -- -- 71
2020-06-25 03:00:00 18.7 17 Sur 20 Sur 0 -- -- 65
2020-06-25 02:00:00 18.8 13 Sudoeste 19 Sur 0 -- -- 68
2020-06-25 01:00:00 19.3 10 Sudoeste 18 Sudeste 0 -- -- 67
2020-06-25 00:00:00 20.3 12 Sudeste 22 Este 0 -- -- 65
2020-06-24 23:00:00 20.2 15 Este 37 Nordeste 0 -- -- 67
2020-06-24 22:00:00 20.6 16 Nordeste 36 Nordeste 0 -- -- 63
2020-06-24 21:00:00 19.7 11 Noroeste 36 Oeste 0 -- -- 66
2020-06-24 20:00:00 21 30 Sur 36 Oeste 0.2 -- -- 61
2020-06-24 19:00:00 17.8 28 Oeste 74 Oeste 0.4 -- -- 81
2020-06-24 18:00:00 20.2 58 Oeste 87 Oeste 0 -- -- 63
2020-06-24 17:00:00 18.1 72 Oeste 88 Oeste 1.6 -- -- 83
2020-06-24 16:00:00 22.8 48 Sudoeste 67 Sudoeste 0 -- -- 54
2020-06-24 15:00:00 27.7 16 Nordeste 27 Nordeste 0 -- -- 51
2020-06-24 14:00:00 28.6 12 Nordeste 25 Nordeste 0 -- -- 51
2020-06-24 13:00:00 27.6 16 Nordeste 26 Nordeste 0 -- -- 54
2020-06-24 12:00:00 26.4 20 Nordeste 28 Nordeste 0 -- -- 59
2020-06-24 11:00:00 27.6 8 Nordeste 19 Este 0 -- -- 49
2020-06-24 10:00:00 23.7 14 Sur 21 Sur 0 -- -- 62
2020-06-24 09:00:00 22.4 8 Sudoeste 14 Oeste 0 -- -- 65
2020-06-24 08:00:00 19.7 10 Oeste 21 Oeste 0 -- -- 74
2020-06-24 07:00:00 19.7 3 Nordeste 21 Sur 0 -- -- 71
2020-06-24 06:00:00 18.6 18 Sudoeste 21 Sur 0 -- -- 75
2020-06-24 05:00:00 20 2 Oeste 15 Oeste 0 -- -- 70
2020-06-24 04:00:00 20.3 13 Oeste 24 Oeste 0 -- -- 72
2020-06-24 03:00:00 21.1 17 Oeste 21 Oeste 0 -- -- 69
2020-06-24 02:00:00 20.5 17 Sur 19 Sur 0 -- -- 72
2020-06-24 01:00:00 22.3 10 Sur 17 Sur 0 -- -- 65
2020-06-24 00:00:00 21.6 17 Sudoeste 19 Sudoeste 0 -- -- 69
2020-06-23 23:00:00 22.6 14 Sudoeste 20 Sur 0 -- -- 66
2020-06-23 22:00:00 25.4 10 Sur 16 Sur 0 -- -- 57
2020-06-23 21:00:00 25.9 13 Sur 22 Sur 0 -- -- 56
2020-06-23 20:00:00 26.6 15 Sur 32 Este 0 -- -- 54
2020-06-23 19:00:00 28.6 21 Este 30 Nordeste 0 -- -- 47
2020-06-23 18:00:00 29.9 18 Este 35 Este 0 -- -- 39
2020-06-23 17:00:00 29.7 17 Este 30 Este 0 -- -- 43
2020-06-23 16:00:00 28.8 20 Este 30 Este 0 -- -- 45
2020-06-23 15:00:00 28.5 20 Este 32 Nordeste 0 -- -- 46
2020-06-23 14:00:00 27.8 19 Este 29 Este 0 -- -- 47
2020-06-23 13:00:00 26.5 14 Este 27 Este 0 -- -- 49
2020-06-23 12:00:00 25.4 15 Este 26 Nordeste 0 -- -- 52
2020-06-23 11:00:00 24.5 13 Este 24 Nordeste 0 -- -- 53
2020-06-23 10:00:00 23.1 17 Este 23 Este 0 -- -- 56
2020-06-23 09:00:00 22.3 7 Nordeste 10 Nordeste 0 -- -- 57
2020-06-23 08:00:00 20.4 3 Este 5 Este 0 -- -- 57
2020-06-23 07:00:00 19.2 6 Este 13 Este 0 -- -- 62
2020-06-23 06:00:00 20 5 Este 8 Este 0 -- -- 56
2020-06-23 05:00:00 20.2 3 Nordeste 10 Sur 0 -- -- 51
2020-06-23 04:00:00 20.8 5 Nordeste 13 Oeste 0 -- -- 47
2020-06-23 03:00:00 20.3 12 Sudoeste 16 Sudoeste 0 -- -- 51
2020-06-23 02:00:00 21.3 13 Oeste 15 Oeste 0 -- -- 47
2020-06-23 01:00:00 21.5 10 Oeste 14 Sur 0 -- -- 45
2020-06-23 00:00:00 23.6 7 Noroeste 10 Oeste 0 -- -- 41
2020-06-22 23:00:00 24.1 7 Oeste 10 Noroeste 0 -- -- 38
2020-06-22 22:00:00 24.8 9 Noroeste 12 Norte 0 -- -- 36
2020-06-22 21:00:00 26.1 9 Norte 20 Norte 0 -- -- 34
2020-06-22 20:00:00 26.8 12 Nordeste 20 Nordeste 0 -- -- 33
2020-06-22 19:00:00 27.6 12 Norte 23 Nordeste 0 -- -- 32
2020-06-22 18:00:00 28.2 10 Norte 24 Norte 0 -- -- 35
2020-06-22 17:00:00 28.4 11 Norte 29 Noroeste 0 -- -- 36
2020-06-22 16:00:00 28.1 13 Norte 26 Noroeste 0 -- -- 36
2020-06-22 15:00:00 27.4 14 Norte 34 Norte 0 -- -- 39
2020-06-22 14:00:00 26.8 11 Norte 24 Noroeste 0 -- -- 45
2020-06-22 13:00:00 25.5 15 Noroeste 27 Noroeste 0 -- -- 49
2020-06-22 12:00:00 24 14 Noroeste 23 Noroeste 0 -- -- 52
2020-06-22 11:00:00 22.8 5 Norte 17 Noroeste 0 -- -- 55
2020-06-22 10:00:00 20.5 9 Noroeste 22 Noroeste 0 -- -- 60
2020-06-22 09:00:00 18.6 22 Oeste 37 Oeste 0 -- -- 62
2020-06-22 08:00:00 17.1 32 Oeste 41 Oeste 0 -- -- 66
2020-06-22 07:00:00 16.2 28 Oeste 39 Oeste 0 -- -- 67
2020-06-22 06:00:00 16.3 35 Oeste 45 Oeste 0 -- -- 66
2020-06-22 05:00:00 16.7 37 Oeste 48 Oeste 0 -- -- 63
2020-06-22 04:00:00 17.1 37 Oeste 48 Oeste 0 -- -- 60
2020-06-22 03:00:00 17.5 40 Oeste 55 Oeste 0 -- -- 59
2020-06-22 02:00:00 18.2 44 Oeste 55 Oeste 0 -- -- 58
2020-06-22 01:00:00 19.2 39 Oeste 52 Oeste 0 -- -- 55
2020-06-22 00:00:00 21 33 Oeste 49 Oeste 0 -- -- 45
2020-06-21 23:00:00 22.2 33 Noroeste 42 Noroeste 0 -- -- 45
2020-06-21 22:00:00 23.7 23 Noroeste 31 Noroeste 0 -- -- 41
2020-06-21 21:00:00 26.2 24 Noroeste 34 Noroeste 0 -- -- 35
2020-06-21 20:00:00 27.2 23 Norte 32 Norte 0 -- -- 34
2020-06-21 19:00:00 28.3 17 Norte 30 Norte 0 -- -- 33
2020-06-21 18:00:00 28.5 13 Norte 30 Norte 0 -- -- 33
2020-06-21 17:00:00 29.2 10 Norte 30 Norte 0 -- -- 35
2020-06-21 16:00:00 29.1 19 Norte 33 Noroeste 0 -- -- 35
2020-06-21 15:00:00 28.2 17 Noroeste 31 Noroeste 0 -- -- 38
2020-06-21 14:00:00 27.4 13 Nordeste 24 Nordeste 0 -- -- 39
2020-06-21 13:00:00 26.4 7 Noroeste 15 Noroeste 0 -- -- 40
2020-06-21 12:00:00 25.7 7 Norte 17 Norte 0 -- -- 39
2020-06-21 11:00:00 23.8 11 Noroeste 19 Norte 0 -- -- 45
2020-06-21 10:00:00 22.1 6 Noroeste 15 Oeste 0 -- -- 51
2020-06-21 09:00:00 19.7 8 Oeste 13 Sudoeste 0 -- -- 67
2020-06-21 08:00:00 17.4 12 Oeste 16 Oeste 0 -- -- 76
2020-06-21 07:00:00 17 12 Oeste 20 Oeste 0 -- -- 76
2020-06-21 06:00:00 17.4 15 Sudoeste 19 Oeste 0 -- -- 76
2020-06-21 05:00:00 17.3 17 Oeste 21 Oeste 0 -- -- 79
2020-06-21 04:00:00 19.1 17 Noroeste 21 Oeste 0 -- -- 70
2020-06-21 03:00:00 19.6 17 Oeste 21 Oeste 0 -- -- 68
2020-06-21 02:00:00 20.7 16 Noroeste 25 Oeste 0 -- -- 61
2020-06-21 01:00:00 21.6 10 Sudoeste 15 Sur 0 -- -- 61
2020-06-21 00:00:00 22.2 13 Sur 15 Sur 0 -- -- 58
2020-06-20 23:00:00 23.7 8 Sur 14 Sudeste 0 -- -- 52
2020-06-20 22:00:00 24 10 Este 17 Este 0 -- -- 50
2020-06-20 21:00:00 24.6 13 Este 23 Este 0 -- -- 50
2020-06-20 20:00:00 25.6 11 Este 18 Nordeste 0 -- -- 48
2020-06-20 19:00:00 26 6 Nordeste 27 Este 0 -- -- 47
2020-06-20 18:00:00 25.8 16 Nordeste 28 Este 0 -- -- 48
2020-06-20 17:00:00 25.9 16 Nordeste 27 Nordeste 0 -- -- 47
2020-06-20 16:00:00 26 13 Nordeste 29 Nordeste 0 -- -- 51
2020-06-20 15:00:00 24.6 17 Nordeste 32 Nordeste 0 -- -- 56
2020-06-20 14:00:00 24 12 Nordeste 23 Nordeste 0 -- -- 60
2020-06-20 13:00:00 23.3 7 Nordeste 18 Este 0 -- -- 60
2020-06-20 12:00:00 21.5 9 Este 16 Este 0 -- -- 65
2020-06-20 11:00:00 20.9 9 Norte 17 Norte 0 -- -- 68
2020-06-20 10:00:00 19.1 6 Nordeste 13 Nordeste 0 -- -- 79
2020-06-20 09:00:00 16.2 9 Sudoeste 21 Sudoeste 0 -- -- 91
2020-06-20 08:00:00 15.6 16 Sudoeste 20 Sudoeste 0 -- -- 94
2020-06-20 07:00:00 14.9 12 Oeste 18 Noroeste 0 -- -- 96
2020-06-20 06:00:00 15.2 12 Noroeste 25 Noroeste 0 -- -- 96
2020-06-20 05:00:00 15.5 20 Noroeste 29 Noroeste 0 -- -- 94
2020-06-20 04:00:00 16.7 19 Oeste 24 Oeste 0 -- -- 86
2020-06-20 03:00:00 17.1 15 Sudoeste 23 Oeste 0 -- -- 85
2020-06-20 02:00:00 17 15 Sudoeste 17 Sur 0 -- -- 87
2020-06-20 01:00:00 17.8 14 Sur 17 Sur 0 -- -- 84
2020-06-20 00:00:00 18.4 14 Sur 21 Sur 0 -- -- 80
2020-06-19 23:00:00 18.8 15 Sur 22 Sur 0 -- -- 79
2020-06-19 22:00:00 19.7 15 Sur 22 Sur 0 -- -- 75
2020-06-19 21:00:00 21.1 13 Este 29 Este 0 -- -- 68
2020-06-19 20:00:00 22.3 15 Este 30 Este 0 -- -- 64
2020-06-19 19:00:00 22.9 17 Este 27 Este 0 -- -- 62
2020-06-19 18:00:00 22.2 8 Sudeste 26 Este 0 -- -- 63
2020-06-19 17:00:00 22.8 16 Este 30 Este 0 -- -- 60
2020-06-19 16:00:00 22 17 Nordeste 23 Nordeste 0 -- -- 62
2020-06-19 15:00:00 22.4 12 Nordeste 27 Nordeste 0 -- -- 63
2020-06-19 14:00:00 21.3 16 Nordeste 27 Nordeste 0 -- -- 63
2020-06-19 13:00:00 20.6 16 Nordeste 28 Nordeste 0 -- -- 65
2020-06-19 12:00:00 19.5 14 Nordeste 22 Nordeste 0 -- -- 67
2020-06-19 11:00:00 18.7 11 Nordeste 19 Este 0 -- -- 70
2020-06-19 10:00:00 17 7 Nordeste 10 Nordeste 0 -- -- 81
2020-06-19 09:00:00 15.5 5 Nordeste 10 Este 0 -- -- 85
2020-06-19 08:00:00 14 3 Norte 8 Nordeste 0 -- -- 93
2020-06-19 07:00:00 13.8 4 Norte 10 Noroeste 0 -- -- 92
2020-06-19 06:00:00 14.3 5 Noroeste 15 Noroeste 0 -- -- 87
2020-06-19 05:00:00 14.6 12 Oeste 21 Oeste 0 -- -- 81
2020-06-19 04:00:00 14.8 16 Oeste 20 Oeste 0 -- -- 92
2020-06-19 03:00:00 15 12 Oeste 16 Sur 0 -- -- 91
2020-06-19 02:00:00 15.1 16 Sudoeste 19 Sur 0 -- -- 92
2020-06-19 01:00:00 16 12 Sur 15 Sur 0 -- -- 87
2020-06-19 00:00:00 16.6 7 Sur 16 Sur 0 -- -- 85
2020-06-18 23:00:00 17.6 9 Sudeste 15 Sudeste 0 -- -- 77
2020-06-18 22:00:00 17.6 12 Sudeste 18 Sudeste 0 -- -- 78
2020-06-18 21:00:00 18.5 13 Este 25 Este 0 -- -- 74
2020-06-18 20:00:00 19.5 17 Este 31 Este 0 -- -- 69
2020-06-18 19:00:00 19.7 18 Este 29 Este 0 -- -- 67
2020-06-18 18:00:00 19.6 13 Nordeste 26 Nordeste 0 -- -- 65
2020-06-18 17:00:00 20 14 Nordeste 33 Nordeste 0 -- -- 64
2020-06-18 16:00:00 19.4 20 Nordeste 32 Nordeste 0 -- -- 67
2020-06-18 15:00:00 18.9 20 Nordeste 31 Nordeste 0 -- -- 70
2020-06-18 14:00:00 18.5 15 Nordeste 29 Nordeste 0 -- -- 70
2020-06-18 13:00:00 17.8 17 Nordeste 26 Nordeste 0 -- -- 70
2020-06-18 12:00:00 17.1 7 Este 20 Este 0 -- -- 72
2020-06-18 11:00:00 16 5 Sur 13 Sur 0 -- -- 76
2020-06-18 10:00:00 13.6 10 Sur 15 Sur 0 -- -- 85
2020-06-18 09:00:00 12.5 4 Este 10 Este 0 -- -- 86
2020-06-18 08:00:00 11.9 3 Este 17 Norte 0 -- -- 86
2020-06-18 07:00:00 11.8 14 Nordeste 26 Nordeste 0 -- -- 88
2020-06-18 06:00:00 12 8 Norte 13 Norte 0.2 -- -- 85
2020-06-18 05:00:00 12.4 9 Nordeste 22 Norte 0 -- -- 84
2020-06-18 04:00:00 13.7 11 Nordeste 17 Nordeste 1.4 -- -- 76
2020-06-18 03:00:00 15.4 8 Oeste 11 Noroeste 0.8 -- -- 76
2020-06-18 02:00:00 15.2 5 Noroeste 17 Sur 0 -- -- 73
2020-06-18 01:00:00 15.5 10 Sur 12 Sur 0 -- -- 73
2020-06-18 00:00:00 15.6 8 Sudoeste 13 Sur 0 -- -- 74
2020-06-17 23:00:00 16.5 8 Sudoeste 16 Sudeste 0 -- -- 68
2020-06-17 22:00:00 17.4 8 Sudeste 15 Sudeste 0 -- -- 60
2020-06-17 21:00:00 18.2 13 Este 16 Este 0 -- -- 54
2020-06-17 20:00:00 18.5 9 Nordeste 22 Norte 0 -- -- 52
2020-06-17 19:00:00 19.1 12 Nordeste 21 Nordeste 0 -- -- 51
2020-06-17 18:00:00 19.7 13 Nordeste 24 Noroeste 0 -- -- 51
2020-06-17 17:00:00 19.1 13 Nordeste 27 Nordeste 0 -- -- 55
2020-06-17 16:00:00 19.5 12 Norte 24 Nordeste 0 -- -- 59
2020-06-17 15:00:00 18 17 Norte 28 Nordeste 0 -- -- 60
2020-06-17 14:00:00 18.1 12 Norte 24 Norte 0 -- -- 61
2020-06-17 13:00:00 18.2 8 Norte 26 Noroeste 0 -- -- 60
2020-06-17 12:00:00 17.3 13 Norte 28 Noroeste 0 -- -- 61
2020-06-17 11:00:00 15.6 18 Noroeste 27 Noroeste 0 -- -- 64
2020-06-17 10:00:00 13.7 14 Oeste 26 Oeste 0 -- -- 74
2020-06-17 09:00:00 12.2 22 Oeste 28 Oeste 0 -- -- 81
2020-06-17 08:00:00 11 21 Oeste 27 Oeste 0 -- -- 88
2020-06-17 07:00:00 10.4 15 Oeste 22 Oeste 0 -- -- 90
2020-06-17 06:00:00 10.4 15 Oeste 22 Oeste 0 -- -- 92
2020-06-17 05:00:00 10.8 21 Oeste 33 Oeste 0 -- -- 90
2020-06-17 04:00:00 11.7 21 Oeste 28 Oeste 0 -- -- 88
2020-06-17 03:00:00 11.9 16 Oeste 23 Oeste 0 -- -- 87
2020-06-17 02:00:00 12.3 12 Sudoeste 22 Oeste 0 -- -- 85
2020-06-17 01:00:00 12.2 17 Oeste 22 Oeste 0 -- -- 89
2020-06-17 00:00:00 13 17 Oeste 22 Oeste 0 -- -- 85
2020-06-16 23:00:00 13.9 9 Noroeste 32 Noroeste 0 -- -- 79
2020-06-16 22:00:00 14.3 25 Noroeste 43 Noroeste 0 -- -- 76
2020-06-16 21:00:00 16.3 19 Nordeste 42 Norte 0 -- -- 80
2020-06-16 20:00:00 18.5 17 Nordeste 24 Nordeste 0 -- -- 68
2020-06-16 19:00:00 18.8 15 Nordeste 27 Nordeste 0 -- -- 68
2020-06-16 18:00:00 19.6 18 Norte 28 Norte 0 -- -- 63
2020-06-16 17:00:00 19.9 20 Oeste 33 Oeste 0 -- -- 63
2020-06-16 16:00:00 18.6 21 Oeste 32 Oeste 0 -- -- 68
2020-06-16 15:00:00 14.7 14 Oeste 26 Oeste 0 -- -- 82
2020-06-16 14:00:00 14.3 19 Oeste 24 Oeste 0.2 -- -- 87
2020-06-16 13:00:00 13.5 15 Oeste 22 Oeste 0.4 -- -- 94
2020-06-16 12:00:00 13.4 10 Oeste 17 Oeste 4.4 -- -- 95
2020-06-16 11:00:00 13.4 9 Sur 13 Sudoeste 2.6 -- -- 94
2020-06-16 10:00:00 13.4 7 Noroeste 12 Este 1.6 -- -- 92
2020-06-16 09:00:00 13.2 6 Este 19 Norte 0.2 -- -- 90
2020-06-16 08:00:00 13.8 6 Sudoeste 9 Sudoeste 0 -- -- 88
2020-06-16 07:00:00 13.8 3 Nordeste 17 Noroeste 0 -- -- 87
2020-06-16 06:00:00 14.5 10 Norte 23 Norte 0 -- -- 80
2020-06-16 05:00:00 14.7 9 Oeste 13 Noroeste 0 -- -- 79
2020-06-16 04:00:00 14.8 9 Oeste 14 Oeste 0 -- -- 78
2020-06-16 03:00:00 15.4 9 Oeste 13 Oeste 0 -- -- 75
2020-06-16 02:00:00 15.6 12 Oeste 17 Noroeste 0 -- -- 72
2020-06-16 01:00:00 16.4 13 Oeste 15 Oeste 0 -- -- 67
2020-06-16 00:00:00 17 10 Oeste 27 Noroeste 0 -- -- 65
2020-06-15 23:00:00 18.7 21 Noroeste 33 Noroeste 0 -- -- 60
2020-06-15 22:00:00 19.6 16 Noroeste 24 Noroeste 0 -- -- 55
2020-06-15 21:00:00 21.5 15 Norte 25 Nordeste 0 -- -- 47
2020-06-15 20:00:00 22.5 10 Nordeste 21 Nordeste 0 -- -- 43
2020-06-15 19:00:00 22.9 13 Nordeste 26 Nordeste 0 -- -- 43
2020-06-15 18:00:00 23 12 Nordeste 31 Nordeste 0 -- -- 43
2020-06-15 17:00:00 23.1 24 Nordeste 33 Nordeste 0 -- -- 44
2020-06-15 16:00:00 22.8 15 Nordeste 31 Norte 0 -- -- 45
2020-06-15 15:00:00 23.1 14 Nordeste 29 Nordeste 0 -- -- 44
2020-06-15 14:00:00 22.2 15 Nordeste 30 Nordeste 0 -- -- 47
2020-06-15 13:00:00 21.9 8 Nordeste 22 Nordeste 0 -- -- 46
2020-06-15 12:00:00 21 6 Este 17 Norte 0 -- -- 49
2020-06-15 11:00:00 19.2 4 Este 11 Nordeste 0 -- -- 55
2020-06-15 10:00:00 17.5 6 Nordeste 10 Nordeste 0 -- -- 61
2020-06-15 09:00:00 16.4 5 Oeste 9 Oeste 0 -- -- 65
2020-06-15 08:00:00 14.5 8 Oeste 13 Oeste 0 -- -- 70
2020-06-15 07:00:00 13.6 11 Oeste 15 Oeste 0 -- -- 72
2020-06-15 06:00:00 13.8 14 Oeste 17 Oeste 0 -- -- 71
2020-06-15 05:00:00 14 14 Oeste 19 Oeste 0 -- -- 70
2020-06-15 04:00:00 14 17 Oeste 21 Oeste 0 -- -- 69
2020-06-15 03:00:00 14.5 20 Oeste 22 Oeste 0 -- -- 66
2020-06-15 02:00:00 15.6 13 Oeste 27 Oeste 0 -- -- 61
2020-06-15 01:00:00 16.9 20 Oeste 29 Noroeste 0 -- -- 56
2020-06-15 00:00:00 18.1 19 Noroeste 28 Noroeste 0 -- -- 53
2020-06-14 23:00:00 19.7 17 Noroeste 24 Noroeste 0 -- -- 46
2020-06-14 22:00:00 20.4 8 Nordeste 21 Nordeste 0 -- -- 43
2020-06-14 21:00:00 21.2 16 Nordeste 21 Nordeste 0 -- -- 42
2020-06-14 20:00:00 22.5 10 Norte 20 Norte 0 -- -- 39
2020-06-14 19:00:00 23.2 11 Norte 23 Noroeste 0 -- -- 39
2020-06-14 18:00:00 23.4 14 Noroeste 24 Nordeste 0 -- -- 39
2020-06-14 17:00:00 24.7 9 Noroeste 29 Norte 0 -- -- 37
2020-06-14 16:00:00 23.8 8 Norte 33 Oeste 0 -- -- 40
2020-06-14 15:00:00 24.1 14 Noroeste 28 Noroeste 0 -- -- 40
2020-06-14 14:00:00 22.8 12 Norte 30 Nordeste 0 -- -- 44
2020-06-14 13:00:00 21.6 13 Nordeste 27 Nordeste 0 -- -- 46
2020-06-14 12:00:00 21.2 6 Nordeste 14 Oeste 0 -- -- 45
2020-06-14 11:00:00 18.8 11 Noroeste 18 Noroeste 0 -- -- 48
2020-06-14 10:00:00 16.8 6 Oeste 13 Sudoeste 0 -- -- 54
2020-06-14 09:00:00 14 10 Oeste 18 Oeste 0 -- -- 62
2020-06-14 08:00:00 12.9 13 Oeste 19 Oeste 0 -- -- 65
2020-06-14 07:00:00 12.5 15 Oeste 19 Oeste 0 -- -- 65
2020-06-14 06:00:00 13.6 9 Sudoeste 12 Sudoeste 0 -- -- 58
2020-06-14 05:00:00 13.2 12 Oeste 15 Oeste 0 -- -- 61
2020-06-14 04:00:00 15.4 11 Sur 13 Sur 0 -- -- 51
2020-06-14 03:00:00 16.6 6 Sudeste 13 Sudeste 0 -- -- 48
2020-06-14 02:00:00 15.9 6 Sur 9 Sur 0 -- -- 50
2020-06-14 01:00:00 16.2 7 Sur 13 Sudeste 0 -- -- 50
2020-06-14 00:00:00 16.7 5 Sudeste 9 Sur 0 -- -- 48
2020-06-13 23:00:00 17.1 7 Nordeste 15 Nordeste 0 -- -- 47
2020-06-13 22:00:00 18 9 Nordeste 15 Nordeste 0 -- -- 43
2020-06-13 21:00:00 20.2 13 Noroeste 30 Noroeste 0 -- -- 39
2020-06-13 20:00:00 21 19 Norte 34 Noroeste 0 -- -- 37
2020-06-13 19:00:00 22 21 Noroeste 44 Oeste 0 -- -- 37
2020-06-13 18:00:00 21.9 21 Noroeste 43 Oeste 0 -- -- 37
2020-06-13 17:00:00 21 32 Oeste 49 Oeste 0 -- -- 37
2020-06-13 16:00:00 20.9 32 Oeste 56 Oeste 0 -- -- 37
2020-06-13 15:00:00 19.6 32 Oeste 56 Oeste 0 -- -- 40
2020-06-13 14:00:00 18.9 35 Oeste 54 Oeste 0 -- -- 41
2020-06-13 13:00:00 18.6 35 Oeste 48 Oeste 0 -- -- 44
2020-06-13 12:00:00 17 31 Oeste 46 Oeste 0 -- -- 48
2020-06-13 11:00:00 15.5 36 Oeste 51 Oeste 0 -- -- 56
2020-06-13 10:00:00 14.8 36 Oeste 53 Oeste 0 -- -- 60
2020-06-13 09:00:00 13.5 35 Oeste 51 Oeste 0 -- -- 65
2020-06-13 08:00:00 12.5 34 Oeste 45 Oeste 0 -- -- 66
2020-06-13 07:00:00 12.2 33 Oeste 40 Oeste 0 -- -- 65
2020-06-13 06:00:00 12.6 27 Oeste 35 Oeste 0 -- -- 63
2020-06-13 05:00:00 12.2 9 Oeste 28 Sudoeste 0 -- -- 68
2020-06-13 04:00:00 11.4 12 Sudoeste 15 Sudoeste 0 -- -- 76
2020-06-13 03:00:00 12.2 9 Noroeste 28 Noroeste 0 -- -- 72
2020-06-13 02:00:00 13.3 21 Noroeste 27 Noroeste 0 -- -- 67
2020-06-13 01:00:00 15.3 13 Noroeste 18 Oeste 0 -- -- 55
2020-06-13 00:00:00 16.1 14 Oeste 30 Oeste 0 -- -- 47
2020-06-12 23:00:00 17 13 Oeste 20 Oeste 0 -- -- 48
2020-06-12 22:00:00 17.7 4 Sudeste 18 Este 0 -- -- 51
2020-06-12 21:00:00 18.3 7 Este 25 Este 0 -- -- 46
2020-06-12 20:00:00 18.8 17 Nordeste 24 Este 0 -- -- 43
2020-06-12 19:00:00 18.9 19 Nordeste 33 Nordeste 0 -- -- 42
2020-06-12 18:00:00 19.4 18 Nordeste 28 Nordeste 0 -- -- 41
2020-06-12 17:00:00 20.5 17 Nordeste 25 Nordeste 0 -- -- 39
2020-06-12 16:00:00 21.7 15 Oeste 29 Oeste 0 -- -- 35
2020-06-12 15:00:00 20.3 18 Oeste 28 Oeste 0 -- -- 38
2020-06-12 14:00:00 19.8 17 Oeste 32 Oeste 0 -- -- 41
2020-06-12 13:00:00 18.1 16 Oeste 32 Sudoeste 0 -- -- 42
2020-06-12 12:00:00 17.6 20 Oeste 32 Oeste 0 -- -- 44
2020-06-12 11:00:00 16.2 17 Oeste 28 Oeste 0 -- -- 51
2020-06-12 10:00:00 14.5 10 Noroeste 23 Sudoeste 0 -- -- 62
2020-06-12 09:00:00 13.5 8 Noroeste 14 Noroeste 0 -- -- 66
2020-06-12 08:00:00 11.8 3 Oeste 21 Noroeste 0 -- -- 80
2020-06-12 07:00:00 10.9 14 Noroeste 20 Noroeste 0 -- -- 91
2020-06-12 06:00:00 11 10 Norte 17 Norte 0 -- -- 87
2020-06-12 05:00:00 12.9 9 Oeste 16 Oeste 0 -- -- 75
2020-06-12 04:00:00 13.2 6 Sudoeste 30 Oeste 0 -- -- 77
2020-06-12 03:00:00 13.6 22 Oeste 41 Oeste 0 -- -- 78
2020-06-12 02:00:00 14.2 31 Oeste 44 Noroeste 0 -- -- 75
2020-06-12 01:00:00 14.9 34 Noroeste 43 Noroeste 0 -- -- 74
2020-06-12 00:00:00 15.4 15 Oeste 25 Noroeste 0 -- -- 77
2020-06-11 23:00:00 16.7 10 Oeste 18 Oeste 0 -- -- 68
2020-06-11 22:00:00 18.1 12 Oeste 21 Oeste 0 -- -- 64
2020-06-11 21:00:00 20.3 4 Sudoeste 12 Nordeste 0 -- -- 60
2020-06-11 20:00:00 20.5 11 Nordeste 22 Nordeste 0 -- -- 56
2020-06-11 19:00:00 21.2 15 Nordeste 24 Nordeste 0 -- -- 48
2020-06-11 18:00:00 22.1 13 Nordeste 19 Norte 0 -- -- 48
2020-06-11 17:00:00 21.2 10 Nordeste 23 Este 0 -- -- 48
2020-06-11 16:00:00 21.8 16 Este 23 Este 0 -- -- 49
2020-06-11 15:00:00 20.7 12 Nordeste 22 Este 0 -- -- 52
2020-06-11 14:00:00 20.7 17 Nordeste 26 Nordeste 0 -- -- 53
2020-06-11 13:00:00 20 12 Nordeste 25 Nordeste 0 -- -- 55
2020-06-11 12:00:00 20.8 7 Norte 22 Sudoeste 0 -- -- 54
2020-06-11 11:00:00 19.2 8 Este 12 Nordeste 0 -- -- 60
2020-06-11 10:00:00 18.4 6 Este 10 Nordeste 0 -- -- 60
2020-06-11 09:00:00 14.6 2 Sudoeste 6 Sudoeste 0 -- -- 72
2020-06-11 08:00:00 13.2 3 Este 13 Este 0 -- -- 71
2020-06-11 07:00:00 12.9 9 Este 13 Este 0 -- -- 75
2020-06-11 06:00:00 12.9 9 Este 11 Este 0 -- -- 75
2020-06-11 05:00:00 13.1 7 Nordeste 9 Nordeste 0 -- -- 73
2020-06-11 04:00:00 13.2 6 Sur 13 Sur 0 -- -- 73
2020-06-11 03:00:00 13.3 10 Sur 14 Sur 0 -- -- 71
2020-06-11 02:00:00 13.8 3 Norte 10 Norte 0 -- -- 61
2020-06-11 01:00:00 14 7 Nordeste 11 Este 0 -- -- 65
2020-06-11 00:00:00 14.5 7 Sudeste 15 Sur 0 -- -- 62